Hopewell, Canada
Current Conditions -  °F | °C
As of 1:00 AM on Thursday 23 Oct 2014 (Local Time) from CYHZ Reporting Station
Haze Haze  
Wind Chill: 52°   Ceiling: 600
Heat Index: 52°   Visibility: 5mi
Dew Point: 50°   Wind: 16mph
Humidity: 94%   Direction: 70°ENE
Pressure: 30.15"   Gusts: 23mph
Location:  45.47°N, 62.7°W
Report Text: CYHZ 230400Z 07014G20KT 5SM BR BKN006 OVC065 11/10 A3015 RMK SF7SC1 SLP214
Loading
Personal Weather Stations






























Interactive Weather Map New forecast layout! Learn more

10-Day Weather Forecast

Advertisements
Track Severe Weather on mobile